Time;durP1;ratioP1;P1;durP2;ratioP2;P2;SDS_P1;SDS_P2;PMS_P1;PMS_P2;Temp;Humidity;BMP_temperature;BMP_pressure;BME280_temperature;BME280_humidity;BME280_pressure;Samples;Min_cycle;Max_cycle;Signal;HPM_P1;HPM_P2
2022/08/24 00:01:12;;;;;;;20.95;18.75;;;;;;;22.13;73.60;101460.63;3588452;39;20063;-64
2022/08/24 00:03:41;;;;;;;20.98;18.42;;;;;;;22.13;73.49;101470.72;3588899;39;20072;-64
2022/08/24 00:06:13;;;;;;;21.40;19.17;;;;;;;22.07;73.42;101465.84;3588291;39;20063;-64
2022/08/24 00:08:40;;;;;;;22.30;19.98;;;;;;;22.05;73.54;101456.97;3587283;39;20064;-64
2022/08/24 00:11:07;;;;;;;23.67;20.13;;;;;;;22.02;73.85;101464.44;3588305;39;20378;-64
2022/08/24 00:13:34;;;;;;;21.88;19.58;;;;;;;21.97;74.24;101461.31;3587988;39;20100;-64
2022/08/24 00:16:00;;;;;;;23.23;20.50;;;;;;;21.95;74.01;101468.81;3587606;39;20136;-63
2022/08/24 00:18:26;;;;;;;23.65;20.83;;;;;;;21.91;73.99;101467.38;3591588;39;20048;-64
2022/08/24 00:20:52;;;;;;;22.15;19.95;;;;;;;21.88;74.63;101467.69;3590644;39;20048;-64
2022/08/24 00:23:18;;;;;;;22.80;20.40;;;;;;;21.80;74.42;101453.94;3590182;39;20132;-63
2022/08/24 00:25:44;;;;;;;23.50;20.75;;;;;;;21.89;74.77;101468.59;3590390;39;20112;-64
2022/08/24 00:28:10;;;;;;;24.02;21.58;;;;;;;21.87;74.44;101468.72;3590380;39;20117;-63
2022/08/24 00:30:36;;;;;;;24.83;22.33;;;;;;;21.70;74.45;101453.13;3590269;39;20356;-64
2022/08/24 00:33:02;;;;;;;24.38;21.88;;;;;;;21.81;74.81;101474.81;3590820;39;20087;-65
2022/08/24 00:35:28;;;;;;;25.85;22.08;;;;;;;21.81;74.92;101480.28;3591779;39;20081;-64
2022/08/24 00:37:54;;;;;;;24.90;22.45;;;;;;;21.79;74.97;101474.13;3592207;39;20123;-65
2022/08/24 00:40:34;;;;;;;28.98;24.20;;;;;;;21.73;75.25;101483.78;3592210;39;20056;-64
2022/08/24 00:43:05;;;;;;;27.00;24.08;;;;;;;21.70;75.60;101481.34;3590743;39;20051;-64
2022/08/24 00:45:50;;;;;;;27.50;24.60;;;;;;;21.68;75.92;101474.28;3590307;39;20076;-64
2022/08/24 00:48:27;;;;;;;28.33;24.98;;;;;;;21.65;75.85;101471.88;3590131;39;20139;-64
2022/08/24 00:51:00;;;;;;;27.48;24.88;;;;;;;21.64;76.19;101471.00;3590672;39;20060;-64
2022/08/24 00:53:38;;;;;;;28.58;25.52;;;;;;;21.59;76.51;101472.47;3592128;39;20120;-64
2022/08/24 00:56:13;;;;;;;28.45;25.45;;;;;;;21.56;76.52;101473.63;3591494;39;20714;-64
2022/08/24 00:58:46;;;;;;;28.00;25.08;;;;;;;21.54;76.49;101478.41;3590667;39;20347;-64
2022/08/24 01:01:13;;;;;;;30.50;27.20;;;;;;;21.44;76.73;101464.75;3589525;39;20056;-64
2022/08/24 01:03:45;;;;;;;29.13;26.17;;;;;;;21.40;76.90;101460.59;3590056;39;20479;-64
2022/08/24 01:06:12;;;;;;;29.50;26.40;;;;;;;21.48;76.57;101474.38;3590009;39;20052;-63
2022/08/24 01:08:39;;;;;;;29.48;26.23;;;;;;;21.34;77.26;101452.94;3589861;39;20286;-64
2022/08/24 01:11:13;;;;;;;29.42;26.52;;;;;;;21.47;77.27;101482.72;3589465;39;20060;-64
2022/08/24 01:13:42;;;;;;;;;;;;;;;21.06;77.34;101422.84;3590278;39;20097;-64
2022/08/24 01:16:10;;;;;;;29.52;26.67;;;;;;;21.22;77.63;101446.81;3590996;39;19931;-64
2022/08/24 01:18:50;;;;;;;29.20;26.05;;;;;;;21.39;77.65;101478.03;3588721;39;20084;-64
2022/08/24 01:21:35;;;;;;;31.70;28.50;;;;;;;21.35;77.24;101471.13;3589039;39;20260;-64
2022/08/24 01:24:08;;;;;;;31.58;26.92;;;;;;;21.33;77.25;101473.13;3593204;39;20055;-64
2022/08/24 01:26:42;;;;;;;;;;;;;;;21.27;77.40;101470.97;3589557;39;20054;-64
2022/08/24 01:29:15;;;;;;;29.00;26.00;;;;;;;21.29;77.91;101488.09;3587572;39;20304;-64
2022/08/24 01:31:41;;;;;;;29.90;26.75;;;;;;;21.29;77.77;101482.63;3589677;39;20323;-62
2022/08/24 01:34:07;;;;;;;30.80;27.60;;;;;;;21.21;77.53;101468.81;3588713;39;20129;-62
2022/08/24 01:36:55;;;;;;;32.40;29.00;;;;;;;21.24;77.80;101479.47;3589457;39;20413;-62
2022/08/24 01:39:56;;;;;;;31.85;28.40;;;;;;;21.19;78.06;101471.72;3592779;39;20344;-62
2022/08/24 01:42:22;;;;;;;31.70;28.65;;;;;;;21.20;78.23;101478.06;3567918;39;20051;-62
2022/08/24 01:44:48;;;;;;;34.20;30.77;;;;;;;21.17;78.46;101472.88;3592049;39;20051;-62
2022/08/24 01:47:15;;;;;;;32.25;28.88;;;;;;;21.17;78.25;101467.41;3593211;39;20294;-62
2022/08/24 01:49:47;;;;;;;30.52;27.27;;;;;;;21.13;78.73;101472.31;3590016;39;20099;-62
2022/08/24 01:52:21;;;;;;;33.55;30.27;;;;;;;21.05;79.58;101466.72;3592066;39;20067;-61
2022/08/24 01:54:48;;;;;;;32.67;29.42;;;;;;;20.99;79.72;101468.16;3591668;39;20340;-62
2022/08/24 01:57:15;;;;;;;32.97;29.50;;;;;;;20.89;79.64;101456.38;3593548;39;20073;-62
2022/08/24 01:59:41;;;;;;;34.13;30.75;;;;;;;20.90;80.02;101469.06;3593214;39;20067;-62
2022/08/24 02:02:16;;;;;;;33.75;30.17;;;;;;;20.87;80.14;101461.16;3590962;39;20055;-62
2022/08/24 02:04:42;;;;;;;34.55;31.15;;;;;;;20.82;80.50;101458.00;3592389;39;20121;-62
2022/08/24 02:07:08;;;;;;;33.20;29.70;;;;;;;20.80;80.10;101466.31;3591127;39;20052;-62
2022/08/24 02:09:35;;;;;;;32.58;29.25;;;;;;;20.76;80.35;101464.03;3592183;39;20063;-62
2022/08/24 02:12:02;;;;;;;33.50;29.90;;;;;;;20.73;81.27;101462.44;3589300;39;20047;-61
2022/08/24 02:14:29;;;;;;;32.70;29.42;;;;;;;20.73;80.90;101461.59;3592792;39;20599;-62
2022/08/24 02:16:56;;;;;;;31.27;28.13;;;;;;;20.70;80.34;101470.06;3592828;39;20064;-62
2022/08/24 02:19:22;;;;;;;32.42;28.52;;;;;;;20.61;80.70;101459.03;3589912;39;20054;-62
2022/08/24 02:21:48;;;;;;;32.30;28.75;;;;;;;20.65;80.38;101467.78;3592535;39;20398;-62
2022/08/24 02:24:14;;;;;;;31.83;28.63;;;;;;;20.58;80.56;101466.63;3590645;39;20067;-62
2022/08/24 02:26:40;;;;;;;32.05;28.85;;;;;;;20.51;80.42;101468.19;3593446;39;20052;-62
2022/08/24 02:29:05;;;;;;;31.52;28.20;;;;;;;20.49;80.57;101471.06;3590023;39;20054;-62
2022/08/24 02:31:32;;;;;;;31.65;28.42;;;;;;;20.46;80.99;101479.56;3591996;39;20091;-61
2022/08/24 02:33:58;;;;;;;28.70;25.75;;;;;;;20.44;80.50;101481.56;3590961;39;20409;-61
2022/08/24 02:36:24;;;;;;;29.67;26.67;;;;;;;20.45;81.06;101477.81;3590379;39;20052;-61
2022/08/24 02:38:50;;;;;;;29.27;26.15;;;;;;;20.43;80.82;101485.31;3594411;39;20051;-61
2022/08/24 02:41:16;;;;;;;29.38;26.38;;;;;;;20.43;80.12;101482.56;3590717;39;20071;-63
2022/08/24 02:43:42;;;;;;;28.05;25.23;;;;;;;20.43;80.65;101482.56;3591141;39;20385;-61
2022/08/24 02:46:16;;;;;;;27.58;24.80;;;;;;;20.45;79.91;101483.28;3590601;39;20039;-61
2022/08/24 02:48:42;;;;;;;26.42;23.77;;;;;;;20.45;79.95;101486.00;3593527;39;20059;-61
2022/08/24 02:51:07;;;;;;;26.77;24.05;;;;;;;20.40;80.00;101480.13;3592690;39;20046;-61
2022/08/24 02:53:33;;;;;;;26.13;23.50;;;;;;;20.38;80.49;101482.13;3591466;39;20052;-62
2022/08/24 02:55:58;;;;;;;27.67;24.58;;;;;;;20.38;80.49;101484.84;3592591;39;20087;-61
2022/08/24 02:58:24;;;;;;;27.08;24.27;;;;;;;20.32;80.09;101483.53;3591874;39;20110;-61
2022/08/24 03:00:50;;;;;;;27.67;24.92;;;;;;;20.28;80.87;101484.84;3590315;39;20059;-62
2022/08/24 03:03:16;;;;;;;27.92;25.08;;;;;;;19.99;80.83;101440.28;3591351;39;20060;-62
2022/08/24 03:05:41;;;;;;;27.17;24.27;;;;;;;20.25;80.87;101481.53;3593258;39;20056;-62
2022/08/24 03:08:07;;;;;;;27.85;25.05;;;;;;;20.20;81.54;101490.13;3590488;39;20066;-61
2022/08/24 03:10:33;;;;;;;26.02;23.35;;;;;;;20.18;81.53;101479.38;3578692;39;20088;-62
2022/08/24 03:13:00;;;;;;;25.13;22.63;;;;;;;20.11;80.55;101459.13;3590124;39;20062;-62
2022/08/24 03:15:26;;;;;;;27.05;24.30;;;;;;;20.21;80.92;101475.50;3590604;39;20133;-61
2022/08/24 03:17:52;;;;;;;26.92;24.20;;;;;;;20.24;80.06;101477.94;3589600;39;20340;-62
2022/08/24 03:20:21;;;;;;;28.10;25.30;;;;;;;20.24;80.92;101485.28;3586388;39;20059;-61
2022/08/24 03:22:47;;;;;;;26.95;24.15;;;;;;;20.22;80.42;101482.69;3590982;39;20052;-61
2022/08/24 03:25:17;;;;;;;26.35;23.70;;;;;;;20.20;79.95;101476.50;3588461;39;20122;-62
2022/08/24 03:27:43;;;;;;;27.38;23.83;;;;;;;20.21;80.61;101477.38;3591006;39;20071;-62
2022/08/24 03:30:12;;;;;;;28.25;25.30;;;;;;;20.21;80.37;101472.78;3589151;39;20426;-62
2022/08/24 03:32:40;;;;;;;28.67;25.83;;;;;;;20.17;81.39;101480.38;3591730;39;20129;-62
2022/08/24 03:35:08;;;;;;;28.33;25.52;;;;;;;20.17;80.53;101468.56;3586192;39;20063;-62
2022/08/24 03:37:34;;;;;;;30.23;27.08;;;;;;;20.13;81.22;101478.91;3589057;39;20060;-62
2022/08/24 03:39:59;;;;;;;27.33;24.70;;;;;;;20.07;80.79;101473.16;3589148;39;20059;-62
2022/08/24 03:42:25;;;;;;;28.08;25.10;;;;;;;20.03;80.78;101472.59;3589655;39;20056;-62
2022/08/24 03:44:50;;;;;;;27.85;24.95;;;;;;;20.01;80.94;101469.13;3590601;39;20059;-62
2022/08/24 03:47:17;;;;;;;27.13;24.48;;;;;;;19.99;80.86;101465.69;3589694;39;20086;-62
2022/08/24 03:49:44;;;;;;;27.20;24.42;;;;;;;19.99;81.39;101464.84;3590590;39;20132;-61
2022/08/24 03:52:10;;;;;;;28.05;25.35;;;;;;;19.97;81.59;101475.88;3588306;39;20064;-61
2022/08/24 03:54:35;;;;;;;27.63;24.75;;;;;;;;;;3590180;39;20055;-62
2022/08/24 03:57:01;;;;;;;28.83;25.73;;;;;;;19.95;82.15;101477.91;3591961;39;20055;-61
2022/08/24 03:59:27;;;;;;;30.42;25.73;;;;;;;19.90;83.07;101477.44;3591272;39;20068;-61
2022/08/24 04:01:54;;;;;;;27.05;24.23;;;;;;;19.90;83.23;101478.31;3590458;39;20382;-61
2022/08/24 04:04:20;;;;;;;25.75;23.02;;;;;;;19.90;81.83;101482.91;3575659;39;20391;-61
2022/08/24 04:06:47;;;;;;;26.20;23.52;;;;;;;19.85;82.37;101479.72;3588450;39;20056;-61
2022/08/24 04:09:14;;;;;;;25.88;23.40;;;;;;;19.84;82.56;101472.53;3587379;39;20398;-61
2022/08/24 04:11:40;;;;;;;25.45;22.75;;;;;;;19.82;82.41;101480.00;3589122;39;20055;-61
2022/08/24 04:14:07;;;;;;;26.83;24.00;;;;;;;19.68;82.56;101465.75;3588897;39;20305;-60
2022/08/24 04:16:33;;;;;;;26.48;23.65;;;;;;;19.79;82.26;101483.00;3590188;39;20302;-61
2022/08/24 04:18:59;;;;;;;26.77;24.15;;;;;;;19.79;82.32;101477.53;3588145;39;20379;-61
2022/08/24 04:21:29;;;;;;;27.13;24.33;;;;;;;19.69;81.88;101475.69;3588131;39;20084;-61
2022/08/24 04:23:57;;;;;;;27.95;23.20;;;;;;;19.76;82.01;101486.91;3589539;39;20055;-61
2022/08/24 04:26:26;;;;;;;25.00;22.35;;;;;;;19.75;81.49;101478.84;3588187;39;20266;-61
2022/08/24 04:28:52;;;;;;;24.67;22.13;;;;;;;19.71;81.34;101484.56;3591611;39;20056;-61
2022/08/24 04:31:19;;;;;;;26.35;23.55;;;;;;;19.71;81.65;101490.03;3588443;39;20384;-61
2022/08/24 04:33:48;;;;;;;23.85;21.33;;;;;;;19.75;81.00;101492.47;3592867;39;20054;-61
2022/08/24 04:36:16;;;;;;;24.80;22.20;;;;;;;19.70;80.91;101487.44;3589231;39;20056;-61
2022/08/24 04:38:42;;;;;;;25.33;22.63;;;;;;;19.76;80.77;101491.47;3590884;39;20056;-60
2022/08/24 04:41:13;;;;;;;25.50;22.52;;;;;;;19.75;80.58;101493.34;3588287;39;20156;-61
2022/08/24 04:43:44;;;;;;;23.98;21.60;;;;;;;19.76;79.92;101488.72;3587073;39;20059;-61
2022/08/24 04:46:15;;;;;;;24.23;21.65;;;;;;;19.78;80.60;101494.94;3588402;39;20042;-61
2022/08/24 04:48:44;;;;;;;24.25;21.55;;;;;;;19.77;80.61;101499.53;3590311;39;20060;-61
2022/08/24 04:51:13;;;;;;;25.88;23.00;;;;;;;19.77;79.87;101493.22;3588946;39;20051;-61
2022/08/24 04:53:40;;;;;;;25.83;23.10;;;;;;;19.75;80.50;101500.66;3590372;39;20090;-61
2022/08/24 04:56:15;;;;;;;24.92;22.20;;;;;;;19.70;80.30;101501.94;3586560;39;20067;-60
2022/08/24 04:58:41;;;;;;;27.10;24.42;;;;;;;19.61;81.65;101494.56;3588552;39;20068;-60
2022/08/24 05:01:18;;;;;;;27.02;24.30;;;;;;;19.60;81.06;101503.75;3588673;39;20055;-60
2022/08/24 05:03:47;;;;;;;27.80;24.90;;;;;;;19.58;81.61;101499.41;3589163;39;20288;-60
2022/08/24 05:06:14;;;;;;;28.08;25.27;;;;;;;19.60;81.79;101500.13;3589991;39;20064;-60
2022/08/24 05:08:40;;;;;;;26.00;23.35;;;;;;;19.64;81.49;101505.22;3591501;39;20048;-61
2022/08/24 05:11:07;;;;;;;26.80;23.98;;;;;;;19.65;81.32;101498.75;3590371;39;20113;-61
2022/08/24 05:13:34;;;;;;;26.13;23.55;;;;;;;19.67;82.40;101506.81;3590372;39;20279;-61
2022/08/24 05:16:00;;;;;;;28.05;25.25;;;;;;;19.65;83.14;101506.94;3590532;39;20048;-60
2022/08/24 05:18:28;;;;;;;28.52;24.98;;;;;;;19.66;82.77;101508.69;3588595;39;20297;-62
2022/08/24 05:20:54;;;;;;;28.85;25.77;;;;;;;19.58;83.32;101494.81;3589051;39;20447;-63
2022/08/24 05:23:21;;;;;;;27.23;24.40;;;;;;;19.75;83.79;101511.56;3587759;39;20055;-62
2022/08/24 05:25:47;;;;;;;28.38;24.00;;;;;;;19.79;83.16;101507.56;3590240;39;20134;-61
2022/08/24 05:28:13;;;;;;;26.92;24.10;;;;;;;19.61;82.96;101472.72;3588097;39;20067;-62
2022/08/24 05:30:39;;;;;;;26.00;23.35;;;;;;;19.86;83.32;101512.34;3590851;39;20366;-63
2022/08/24 05:33:05;;;;;;;24.88;21.95;;;;;;;19.90;82.90;101515.66;3590499;39;20057;-63
2022/08/24 05:35:37;;;;;;;24.92;22.33;;;;;;;19.90;82.12;101515.66;3589985;39;20334;-62
2022/08/24 05:38:03;;;;;;;24.52;22.02;;;;;;;19.80;82.49;101492.94;3589547;39;20059;-62
2022/08/24 05:40:28;;;;;;;25.10;22.52;;;;;;;20.02;81.70;101520.00;3587010;39;20094;-62
2022/08/24 05:42:54;;;;;;;23.83;21.33;;;;;;;20.06;82.17;101524.16;3588985;39;20063;-61
2022/08/24 05:45:20;;;;;;;23.10;20.67;;;;;;;20.13;81.82;101521.75;3589747;39;20063;-62
2022/08/24 05:47:45;;;;;;;22.88;20.42;;;;;;;20.17;81.70;101518.59;3591555;39;20056;-62
2022/08/24 05:50:11;;;;;;;22.85;19.63;;;;;;;20.20;80.75;101514.72;3589593;39;20064;-62
2022/08/24 05:52:36;;;;;;;23.13;20.35;;;;;;;20.30;80.93;101523.81;3591124;39;20059;-63
2022/08/24 05:55:03;;;;;;;22.55;20.27;;;;;;;20.27;80.44;101504.13;3579456;39;20353;-64
2022/08/24 05:57:34;;;;;;;23.80;21.38;;;;;;;20.42;79.87;101516.31;3587799;39;20111;-62
2022/08/24 06:00:00;;;;;;;23.27;20.92;;;;;;;20.47;79.90;101516.78;3587842;39;20333;-62
2022/08/24 06:02:27;;;;;;;22.15;20.02;;;;;;;20.54;80.00;101520.69;3589032;39;20087;-62
2022/08/24 06:04:53;;;;;;;25.33;22.73;;;;;;;20.56;80.50;101513.22;3589031;39;20079;-62
2022/08/24 06:07:19;;;;;;;24.30;21.77;;;;;;;20.68;79.82;101526.72;3588026;39;20056;-62
2022/08/24 06:09:44;;;;;;;25.58;23.02;;;;;;;20.75;79.65;101519.69;3590032;39;20779;-62
2022/08/24 06:12:12;;;;;;;26.70;23.95;;;;;;;20.82;79.84;101520.84;3586652;39;20262;-62
2022/08/24 06:14:38;;;;;;;28.60;24.90;;;;;;;20.88;79.93;101523.00;3589580;39;20090;-62
2022/08/24 06:17:08;;;;;;;27.95;24.95;;;;;;;20.75;79.36;101495.97;3586613;39;20385;-62
2022/08/24 06:19:34;;;;;;;29.63;26.65;;;;;;;21.02;79.49;101541.66;3587695;39;20070;-62
2022/08/24 06:22:00;;;;;;;35.00;28.83;;;;;;;21.10;80.13;101539.09;3589653;39;20040;-62
2022/08/24 06:27:21;;;;;;;33.05;29.70;;;;;;;21.23;79.24;101532.44;3586599;39;20059;-62
2022/08/24 06:29:57;;;;;;;35.22;31.27;;;;;;;21.36;79.03;101540.38;3588067;39;20409;-62
2022/08/24 06:32:24;;;;;;;40.45;32.10;;;;;;;21.43;78.87;101541.50;3588079;39;20052;-62
2022/08/24 06:34:54;;;;;;;35.47;31.77;;;;;;;21.53;78.67;101545.94;3590212;39;20048;-62
2022/08/24 06:37:25;;;;;;;36.90;29.60;;;;;;;21.68;78.39;101543.56;3587510;39;20051;-62
2022/08/24 06:39:51;;;;;;;37.20;28.98;;;;;;;21.86;77.50;101553.75;3589728;39;20121;-62
2022/08/24 06:42:17;;;;;;;34.05;27.70;;;;;;;21.98;76.90;101542.44;3586919;39;20125;-62
2022/08/24 06:44:43;;;;;;;37.45;26.70;;;;;;;22.23;76.91;101553.72;3589909;39;20064;-62
2022/08/24 06:47:10;;;;;;;35.22;26.67;;;;;;;22.43;76.46;101557.22;3587486;39;20059;-62
2022/08/24 06:49:36;;;;;;;36.17;26.17;;;;;;;22.61;75.19;101558.09;3589097;39;20044;-62
2022/08/24 06:52:04;;;;;;;31.73;23.15;;;;;;;22.84;75.13;101569.44;3589893;39;20070;-63
2022/08/24 06:54:30;;;;;;;26.52;22.92;;;;;;;23.03;73.73;101557.47;3587138;39;20068;-64
2022/08/24 06:56:57;;;;;;;24.30;20.95;;;;;;;23.26;72.02;101563.31;3590081;39;20051;-64
2022/08/24 06:59:26;;;;;;;23.85;20.15;;;;;;;23.46;70.38;101557.63;3585417;39;20040;-63
2022/08/24 07:01:54;;;;;;;23.90;21.15;;;;;;;23.66;70.21;101559.13;3590583;39;20056;-64
2022/08/24 07:04:22;;;;;;;21.33;19.20;;;;;;;23.85;68.39;101564.44;3585757;39;20048;-64
2022/08/24 07:06:50;;;;;;;24.80;19.40;;;;;;;24.02;67.04;101570.00;3588807;39;20063;-64
2022/08/24 07:09:15;;;;;;;21.02;17.17;;;;;;;24.16;66.49;101566.59;3590591;39;20059;-64
2022/08/24 07:11:41;;;;;;;22.52;18.70;;;;;;;24.29;66.18;101568.88;3587839;39;20051;-64
2022/08/24 07:14:07;;;;;;;27.73;17.90;;;;;;;24.50;65.34;101573.97;3588331;39;20063;-62
2022/08/24 07:16:34;;;;;;;21.48;17.30;;;;;;;24.71;64.31;101571.63;3589597;39;20052;-62
2022/08/24 07:19:03;;;;;;;17.65;15.32;;;;;;;24.90;64.27;101572.34;3589181;39;20039;-63
2022/08/24 07:21:31;;;;;;;20.27;16.38;;;;;;;25.09;62.64;101574.75;3594403;39;20054;-62
2022/08/24 07:23:59;;;;;;;18.20;16.30;;;;;;;25.33;61.36;101582.16;3594461;39;20047;-62
2022/08/24 07:26:29;;;;;;;19.08;14.40;;;;;;;25.48;60.23;101569.41;3594821;39;20055;-62
2022/08/24 07:29:04;;;;;;;20.20;14.60;;;;;;;25.77;60.31;101578.13;3592608;39;20364;-63
2022/08/24 07:31:39;;;;;;;17.67;14.70;;;;;;;25.95;57.87;101581.56;3590336;39;20059;-63
2022/08/24 07:34:08;;;;;;;15.90;13.70;;;;;;;26.05;58.48;101581.34;3590212;39;20279;-63
2022/08/24 07:36:36;;;;;;;15.98;13.05;;;;;;;26.20;56.25;101581.44;3592363;39;20147;-63
2022/08/24 07:39:04;;;;;;;14.52;12.75;;;;;;;25.81;56.87;101499.63;3591877;39;20070;-63
2022/08/24 07:41:36;;;;;;;14.13;10.77;;;;;;;26.64;54.44;101584.50;3584025;40;20054;-63
2022/08/24 07:44:02;;;;;;;17.67;12.18;;;;;;;26.88;53.96;101583.50;3592120;39;20132;-63
2022/08/24 07:46:27;;;;;;;16.38;12.73;;;;;;;26.98;55.03;101573.06;3590990;39;20059;-63
2022/08/24 07:48:53;;;;;;;19.17;12.85;;;;;;;27.05;54.40;101578.69;3594179;39;20059;-65
2022/08/24 07:51:19;;;;;;;14.70;11.70;;;;;;;27.16;54.59;101577.44;3589726;39;20062;-63
2022/08/24 07:53:45;;;;;;;15.45;11.02;;;;;;;27.31;54.21;101578.34;3575643;39;20264;-64
2022/08/24 07:56:12;;;;;;;11.75;9.15;;;;;;;27.44;52.40;101584.09;3587493;39;20048;-64
2022/08/24 07:58:38;;;;;;;14.05;10.27;;;;;;;27.53;51.44;101571.91;3585081;39;20048;-64
2022/08/24 08:01:05;;;;;;;13.65;10.35;;;;;;;27.72;50.87;101581.56;3584799;39;20052;-64
2022/08/24 08:03:32;;;;;;;13.52;8.90;;;;;;;27.90;49.98;101578.44;3586404;39;20413;-63
2022/08/24 08:06:03;;;;;;;10.18;6.60;;;;;;;28.04;49.95;101578.63;3586172;39;20048;-63
2022/08/24 08:08:31;;;;;;;9.75;6.93;;;;;;;28.23;48.25;101578.03;3588420;39;20295;-64
2022/08/24 08:10:57;;;;;;;9.75;6.30;;;;;;;28.37;47.76;101579.06;3590741;39;20039;-65
2022/08/24 08:13:23;;;;;;;8.07;5.60;;;;;;;28.47;47.78;101579.63;3592246;39;20052;-64
2022/08/24 08:15:49;;;;;;;7.22;5.60;;;;;;;28.45;47.05;101571.56;3592594;39;20117;-63
2022/08/24 08:18:18;;;;;;;9.65;5.43;;;;;;;28.66;46.92;101589.22;3594822;39;20330;-64
2022/08/24 08:20:44;;;;;;;7.40;5.72;;;;;;;28.81;46.29;101590.03;3585996;39;20169;-64
2022/08/24 08:26:00;;;;;;;11.20;5.60;;;;;;;29.10;46.07;101591.84;3588871;39;20062;-64
2022/08/24 08:28:31;;;;;;;9.57;5.40;;;;;;;29.25;47.27;101591.78;3580934;39;20067;-64
2022/08/24 08:31:01;;;;;;;8.55;4.97;;;;;;;29.50;46.92;101591.34;3577106;39;20372;-64
2022/08/24 08:33:28;;;;;;;9.55;5.53;;;;;;;29.59;46.43;101581.78;3589553;39;20090;-65
2022/08/24 08:36:14;;;;;;;6.82;3.90;;;;;;;29.68;45.63;101583.38;3589179;39;20056;-64
2022/08/24 08:38:41;;;;;;;11.13;6.20;;;;;;;29.85;44.69;101572.84;3590089;39;20052;-65
2022/08/24 08:41:41;;;;;;;10.20;5.10;;;;;;;30.14;43.64;101584.75;3590575;39;20306;-64
2022/08/24 08:44:35;;;;;;;6.22;4.22;;;;;;;30.33;44.00;101586.78;3587902;39;20056;-64
2022/08/24 08:47:42;;;;;;;3.40;3.10;;;;;;;30.50;44.66;101592.81;3589100;39;20054;-66
2022/08/24 08:50:35;;;;;;;4.63;3.30;;;;;;;30.56;42.72;101591.97;3559567;40;20060;-65
2022/08/24 08:53:48;;;;;;;5.57;3.08;;;;;;;30.59;43.62;101591.56;3587952;39;20402;-66
2022/08/24 08:56:36;;;;;;;4.90;3.13;;;;;;;30.78;41.66;101589.94;3588194;39;20094;-65
2022/08/24 08:59:33;;;;;;;3.72;3.00;;;;;;;30.88;41.31;101589.53;3590798;39;20602;-64
2022/08/24 09:02:40;;;;;;;4.55;2.80;;;;;;;30.74;40.62;101597.81;3585825;39;20055;-65
2022/08/24 09:05:53;;;;;;;2.75;2.20;;;;;;;30.44;40.82;101601.97;3582099;40;20067;-66
2022/08/24 09:09:11;;;;;;;4.60;2.60;;;;;;;30.29;41.34;101596.59;3592481;39;20392;-65
2022/08/24 09:12:28;;;;;;;3.30;2.15;;;;;;;30.30;42.13;101593.59;3591089;39;20049;-66
2022/08/24 09:15:09;;;;;;;4.40;2.53;;;;;;;30.26;42.03;101599.78;3589373;39;20062;-65
2022/08/24 09:17:52;;;;;;;4.45;2.65;;;;;;;30.16;42.56;101594.59;3589758;39;20091;-64
2022/08/24 09:20:32;;;;;;;6.88;3.30;;;;;;;30.07;42.70;101593.88;3592166;39;20063;-64
2022/08/24 09:23:37;;;;;;;5.07;2.70;;;;;;;30.22;42.69;101601.22;3589142;39;20044;-64
2022/08/24 09:26:25;;;;;;;4.30;2.40;;;;;;;30.48;42.20;101604.13;3588911;39;20781;-64
2022/08/24 09:28:54;;;;;;;5.97;2.65;;;;;;;30.66;42.17;101609.09;3591176;39;20044;-64
2022/08/24 09:31:50;;;;;;;2.45;2.25;;;;;;;30.67;41.72;101576.63;3590266;39;20067;-64
2022/08/24 09:34:45;;;;;;;5.35;2.50;;;;;;;30.88;40.86;101600.66;3591684;39;20060;-66
2022/08/24 09:38:04;;;;;;;2.45;2.13;;;;;;;31.33;39.74;101598.13;3590127;39;20060;-64
2022/08/24 09:40:58;;;;;;;3.20;1.92;;;;;;;31.50;40.65;101593.03;3581909;39;20100;-64
2022/08/24 09:44:01;;;;;;;2.42;2.10;;;;;;;31.79;39.13;101598.13;3588171;39;20468;-64
2022/08/24 09:46:51;;;;;;;3.85;2.40;;;;;;;31.94;37.56;101597.03;3591498;39;20051;-64
2022/08/24 09:49:45;;;;;;;3.72;2.10;;;;;;;32.10;38.14;101594.66;3590248;39;20056;-64
2022/08/24 09:52:28;;;;;;;;;;;;;;;32.22;37.81;101594.81;3590072;39;20067;-64
2022/08/24 09:55:37;;;;;;;3.40;2.30;;;;;;;32.44;36.98;101594.56;3587806;39;19975;-64
2022/08/24 09:58:18;;;;;;;3.78;2.20;;;;;;;32.54;38.32;101584.66;3592071;39;20055;-63
2022/08/24 10:00:51;;;;;;;5.65;2.20;;;;;;;32.69;37.63;101591.84;3589649;39;20063;-64
2022/08/24 10:03:32;;;;;;;4.20;2.35;;;;;;;32.99;35.71;101587.41;3590323;39;20119;-64
2022/08/24 10:06:56;;;;;;;2.88;2.25;;;;;;;33.33;37.11;101598.28;3591196;39;20295;-64
2022/08/24 10:09:39;;;;;;;4.15;2.08;;;;;;;33.32;36.11;101588.22;3540082;40;20126;-64
2022/08/24 10:12:19;;;;;;;3.30;2.00;;;;;;;33.03;35.04;101588.66;3539803;40;20429;-64
2022/08/24 10:15:09;;;;;;;3.85;1.90;;;;;;;33.05;35.49;101585.66;3582172;39;20060;-64
2022/08/24 10:18:12;;;;;;;5.10;4.20;;;;;;;33.09;37.70;101584.13;3591151;39;20339;-64
2022/08/24 10:21:17;;;;;;;4.15;1.67;;;;;;;33.16;35.60;101582.13;3590390;39;20286;-65
2022/08/24 10:24:37;;;;;;;1.75;1.65;;;;;;;32.87;36.34;101579.97;3589154;39;20061;-64
2022/08/24 10:27:35;;;;;;;2.50;1.58;;;;;;;32.31;37.36;101553.69;3584162;39;20125;-64
2022/08/24 10:30:28;;;;;;;1.85;1.70;;;;;;;32.08;37.94;101568.97;3590037;39;20081;-64
2022/08/24 10:33:27;;;;;;;3.35;1.70;;;;;;;31.79;39.14;101573.09;3591344;39;20174;-64
2022/08/24 10:36:25;;;;;;;3.35;2.00;;;;;;;31.55;39.04;101566.28;3588483;39;20054;-65
2022/08/24 10:39:42;;;;;;;2.35;1.77;;;;;;;31.39;38.14;101575.06;3568042;39;20048;-66
2022/08/24 10:45:35;;;;;;;5.22;1.90;;;;;;;31.88;38.03;101568.16;3588948;39;20074;-67
2022/08/24 10:48:29;;;;;;;2.05;1.80;;;;;;;32.41;37.74;101562.41;3591243;39;20055;-67
2022/08/24 10:51:22;;;;;;;3.25;1.90;;;;;;;32.85;36.69;101563.47;3588201;39;20052;-67
2022/08/24 10:53:52;;;;;;;3.10;2.40;;;;;;;33.41;34.60;101551.47;3591404;39;20044;-66
2022/08/24 10:56:34;;;;;;;6.60;1.83;;;;;;;33.82;35.11;101561.16;3590134;39;20062;-67
2022/08/24 10:59:35;;;;;;;2.53;2.10;;;;;;;34.06;34.64;101558.56;3587183;39;20059;-67
2022/08/24 11:02:27;;;;;;;4.60;1.95;;;;;;;34.29;33.24;101560.66;3589733;39;20059;-67
2022/08/24 11:05:00;;;;;;;2.22;2.03;;;;;;;34.36;33.10;101561.41;3589809;39;20132;-67
2022/08/24 11:07:27;;;;;;;2.05;1.67;;;;;;;34.16;34.53;101556.09;3589535;39;20106;-67
2022/08/24 11:10:05;;;;;;;2.25;1.60;;;;;;;33.80;35.42;101554.97;3588747;39;20059;-66
2022/08/24 11:12:43;;;;;;;2.15;1.83;;;;;;;33.80;34.75;101557.75;3592392;39;20382;-67
2022/08/24 11:15:17;;;;;;;4.80;1.88;;;;;;;33.70;33.85;101551.88;3588568;39;20341;-67
2022/08/24 11:17:57;;;;;;;3.00;1.77;;;;;;;33.53;34.80;101553.56;3589376;39;20058;-67
2022/08/24 11:20:45;;;;;;;2.22;1.70;;;;;;;33.71;34.86;101536.81;3586349;39;20048;-67
2022/08/24 11:23:36;;;;;;;2.90;1.75;;;;;;;33.95;34.12;101538.69;3582510;40;20133;-68
2022/08/24 11:26:12;;;;;;;2.50;2.30;;;;;;;34.04;32.74;101538.44;3588161;39;20315;-67
2022/08/24 11:28:50;;;;;;;2.58;2.00;;;;;;;33.97;32.45;101519.78;3588814;39;20056;-67
2022/08/24 11:31:33;;;;;;;5.18;1.83;;;;;;;34.04;33.31;101546.81;3591797;39;20054;-68
2022/08/24 11:34:04;;;;;;;3.75;2.03;;;;;;;33.94;33.57;101539.78;3589077;39;20479;-66
2022/08/24 11:36:36;;;;;;;2.10;1.88;;;;;;;33.86;33.08;101540.09;3590060;39;20074;-67
2022/08/24 11:39:16;;;;;;;3.03;2.00;;;;;;;33.79;33.34;101535.69;3588995;39;20137;-67
2022/08/24 11:42:24;;;;;;;2.63;1.90;;;;;;;34.12;33.85;101538.09;3590428;39;20044;-67
2022/08/24 11:45:07;;;;;;;5.03;2.30;;;;;;;34.49;32.07;101540.81;3583365;39;20133;-66
2022/08/24 11:48:05;;;;;;;3.20;1.95;;;;;;;34.68;34.35;101538.88;3591778;39;20370;-67
2022/08/24 11:50:53;;;;;;;2.78;2.08;;;;;;;34.60;32.55;101535.34;3589722;39;20056;-66
2022/08/24 11:53:47;;;;;;;3.60;1.98;;;;;;;34.19;32.79;101531.34;3586819;39;20109;-67